Time;durP1;ratioP1;P1;durP2;ratioP2;P2;SDS_P1;SDS_P2;PMS_P1;PMS_P2;Temp;Humidity;BMP_temperature;BMP_pressure;BME280_temperature;BME280_humidity;BME280_pressure;Samples;Min_cycle;Max_cycle;Signal;HPM_P1;HPM_P2
2021/12/22 06:40:51;;;;;;;;;;;;;;;0.83;74.66;97531.72;5057172;22;1777250;-75
2021/12/22 06:42:52;;;;;;;;;;;;;;;0.95;74.26;97533.41;5173753;22;5502;-76
2021/12/22 06:44:54;;;;;;;;;;;;;;;1.05;73.85;97538.75;5176154;23;7271;-76
2021/12/22 06:46:55;;;;;;;;;;;;;;;1.03;73.56;97538.03;5176116;22;5792;-76
2021/12/22 06:48:57;;;;;;;;;;;;;;;1.11;73.65;97539.09;5175895;23;5701;-75
2021/12/22 06:50:59;;;;;;;;;;;;;;;1.17;73.63;97537.81;5175201;23;5736;-75
2021/12/22 06:53:00;;;;;;;;;;;;;;;1.20;73.08;97544.56;5174462;23;5657;-77
2021/12/22 06:55:03;;;;;;;;;;;;;;;1.15;73.04;97545.75;5176212;22;5725;-76
2021/12/22 06:57:04;;;;;;;;;;;;;;;1.02;73.08;97546.75;5176137;22;5712;-76
2021/12/22 06:59:06;;;;;;;;;;;;;;;0.82;73.56;97540.47;5173729;23;5693;-76
2021/12/22 07:01:08;;;;;;;;;;;;;;;0.94;73.10;97547.34;5174992;22;5728;-76
2021/12/22 07:03:10;;;;;;;;;;;;;;;1.08;73.33;97551.53;5171137;22;5800;-76
2021/12/22 07:05:12;;;;;;;;;;;;;;;0.84;73.65;97551.59;5170784;23;5824;-76
2021/12/22 07:07:14;;;;;;;;;;;;;;;0.90;73.55;97556.31;5173685;23;5720;-76
2021/12/22 07:09:17;;;;;;;;;;;;;;;1.02;73.13;97551.97;5173693;23;5684;-75
2021/12/22 07:11:18;;;;;;;;;;;;;;;1.08;73.25;97560.16;5175356;23;5704;-76
2021/12/22 07:13:20;;;;;;;;;;;;;;;0.85;72.73;97561.06;5174898;23;5847;-77
2021/12/22 07:15:21;;;;;;;;;;;;;;;0.75;73.19;97567.88;5174206;23;5640;-75
2021/12/22 07:17:25;;;;;;;;;;;;;;;0.72;73.56;97568.94;5174371;23;5715;-76
2021/12/22 07:19:27;;;;;;;;;;;;;;;0.82;73.04;97572.53;5175211;23;5756;-76
2021/12/22 07:21:29;;;;;;;;;;;;;;;0.61;73.61;97570.69;5199595;22;6246;-76
2021/12/22 07:23:31;;;;;;;;;;;;;;;0.61;74.04;97568.06;5171314;23;5726;-76
2021/12/22 07:25:34;;;;;;;;;;;;;;;0.55;73.77;97579.75;5174696;22;5697;-76
2021/12/22 07:27:35;;;;;;;;;;;;;;;0.57;73.89;97576.13;5175793;22;5720;-76
2021/12/22 07:29:37;;;;;;;;;;;;;;;0.80;73.23;97577.03;5175439;22;5764;-75
2021/12/22 07:31:39;;;;;;;;;;;;;;;0.84;72.90;97572.41;5173995;23;5653;-76
2021/12/22 07:33:56;;;;;;;;;;;;;;;0.54;73.58;97571.09;5174764;22;5713;-76
2021/12/22 07:36:00;;;;;;;;;;;;;;;0.55;74.12;97580.56;5175909;23;5804;-76
2021/12/22 07:38:31;;;;;;;;;;;;;;;0.63;73.82;97574.81;5175296;23;5720;-76
2021/12/22 07:40:33;;;;;;;;;;;;;;;0.57;73.54;97578.72;5174964;22;5705;-76
2021/12/22 07:42:35;;;;;;;;;;;;;;;0.46;74.55;97580.44;5148837;23;5691;-76
2021/12/22 07:44:37;;;;;;;;;;;;;;;0.73;73.42;97573.19;5175128;22;5760;-75
2021/12/22 07:46:38;;;;;;;;;;;;;;;0.76;72.96;97582.56;5175339;23;5692;-75
2021/12/22 07:48:40;;;;;;;;;;;;;;;0.75;73.27;97573.09;5175600;23;5739;-76
2021/12/22 07:50:42;;;;;;;;;;;;;;;0.88;72.75;97576.44;5175117;22;5704;-76
2021/12/22 07:52:44;;;;;;;;;;;;;;;0.92;73.06;97583.09;5174433;22;6369;-76
2021/12/22 07:54:46;;;;;;;;;;;;;;;0.91;72.12;97581.44;5174072;22;5704;-76
2021/12/22 07:56:47;;;;;;;;;;;;;;;1.00;72.83;97591.16;5175031;22;5874;-75
2021/12/22 07:58:50;;;;;;;;;;;;;;;0.85;73.01;97579.28;5173696;23;5641;-76
2021/12/22 08:00:54;;;;;;;;;;;;;;;0.53;73.14;97595.47;5173209;23;5657;-75
2021/12/22 08:02:56;;;;;;;;;;;;;;;0.24;74.49;97589.78;5175345;22;5704;-77
2021/12/22 08:05:18;;;;;;;;;;;;;;;0.37;74.09;97596.69;5174189;23;6398;-76
2021/12/22 08:07:19;;;;;;;;;;;;;;;0.42;73.80;97594.59;5175554;22;5697;-76
2021/12/22 08:09:25;;;;;;;;;;;;;;;0.59;73.30;97596.81;5175406;23;5711;-76
2021/12/22 08:11:27;;;;;;;;;;;;;;;0.74;73.08;97585.28;5175190;22;5738;-76
2021/12/22 08:13:29;;;;;;;;;;;;;;;0.49;72.84;97590.63;5174486;22;6337;-76
2021/12/22 08:15:31;;;;;;;;;;;;;;;0.39;73.66;97594.81;5174239;22;5729;-75
2021/12/22 08:17:34;;;;;;;;;;;;;;;0.39;74.10;97600.00;5148983;23;5651;-75
2021/12/22 08:19:36;;;;;;;;;;;;;;;0.32;73.97;97594.41;5174860;22;5788;-76
2021/12/22 08:21:38;;;;;;;;;;;;;;;0.44;74.04;97600.50;5174488;22;5788;-75
2021/12/22 08:23:40;;;;;;;;;;;;;;;0.47;73.63;97601.13;5198766;22;5614;-76
2021/12/22 08:25:42;;;;;;;;;;;;;;;0.37;73.85;97597.53;5174113;22;5708;-76
2021/12/22 08:27:43;;;;;;;;;;;;;;;0.51;73.68;97604.34;5122955;23;5655;-76
2021/12/22 08:29:45;;;;;;;;;;;;;;;0.30;74.39;97601.50;5173988;23;5915;-75
2021/12/22 08:31:47;;;;;;;;;;;;;;;0.48;73.71;97608.00;5173456;23;5632;-76
2021/12/22 08:33:49;;;;;;;;;;;;;;;0.58;73.48;97606.38;5174183;22;5696;-76
2021/12/22 08:40:36;;;;;;;;;;;;;;;0.66;73.45;97612.78;5175148;23;5705;-75
2021/12/22 08:42:37;;;;;;;;;;;;;;;0.82;73.18;97613.34;5173945;22;5723;-76
2021/12/22 08:44:39;;;;;;;;;;;;;;;0.93;72.74;97610.78;5174199;23;5800;-78
2021/12/22 08:46:42;;;;;;;;;;;;;;;1.01;72.46;97613.63;5172008;23;5617;-80
2021/12/22 08:48:44;;;;;;;;;;;;;;;0.86;72.39;97613.00;5174976;22;5696;-79
2021/12/22 08:50:45;;;;;;;;;;;;;;;0.96;71.89;97620.97;5174019;22;5701;-81
2021/12/22 08:52:47;;;;;;;;;;;;;;;1.01;72.28;97628.44;5198151;22;5606;-79
2021/12/22 08:54:49;;;;;;;;;;;;;;;1.08;72.02;97629.66;5171936;22;5712;-78
2021/12/22 08:56:50;;;;;;;;;;;;;;;0.98;71.69;97624.28;5196721;22;6392;-79
2021/12/22 08:58:54;;;;;;;;;;;;;;;0.90;71.52;97623.19;5174833;22;5704;-80
2021/12/22 09:00:55;;;;;;;;;;;;;;;0.79;72.03;97634.38;5174859;22;5809;-78
2021/12/22 09:02:57;;;;;;;;;;;;;;;0.85;71.24;97639.16;5174045;23;6333;-72
2021/12/22 09:04:59;;;;;;;;;;;;;;;0.88;70.99;97638.91;5174608;22;5756;-74
2021/12/22 09:07:01;;;;;;;;;;;;;;;0.95;71.30;97639.31;5174259;22;5705;-76
2021/12/22 09:09:03;;;;;;;;;;;;;;;0.64;71.15;97635.50;5173589;22;5819;-75
2021/12/22 09:11:06;;;;;;;;;;;;;;;0.70;71.34;97638.50;5147916;23;5646;-75
2021/12/22 09:13:07;;;;;;;;;;;;;;;0.62;71.49;97634.78;5172645;23;5633;-76
2021/12/22 09:15:09;;;;;;;;;;;;;;;0.45;71.14;97631.59;5173407;23;5744;-76
2021/12/22 09:17:11;;;;;;;;;;;;;;;-0.04;73.17;97636.84;5172580;23;5633;-75
2021/12/22 09:19:12;;;;;;;;;;;;;;;0.39;72.26;97633.84;5172814;23;5706;-74
2021/12/22 09:21:16;;;;;;;;;;;;;;;0.47;71.48;97637.56;5173588;23;5720;-75
2021/12/22 09:23:17;;;;;;;;;;;;;;;0.30;71.86;97640.50;5173996;23;5784;-75
2021/12/22 09:25:19;;;;;;;;;;;;;;;0.21;71.81;97644.59;5173982;22;5696;-77
2021/12/22 09:27:21;;;;;;;;;;;;;;;0.13;71.91;97648.69;5173636;22;5051;-76
2021/12/22 09:29:26;;;;;;;;;;;;;;;0.08;72.44;97648.16;5173083;23;8453;-79
2021/12/22 09:31:27;;;;;;;;;;;;;;;-0.10;72.32;97645.91;5172421;23;7162;-75
2021/12/22 09:33:29;;;;;;;;;;;;;;;-0.09;72.84;97652.78;5172596;23;5629;-76
2021/12/22 09:35:31;;;;;;;;;;;;;;;0.16;71.98;97641.50;5172446;22;5708;-76
2021/12/22 09:37:33;;;;;;;;;;;;;;;0.09;72.13;97644.63;5171404;23;5636;-75
2021/12/22 09:39:34;;;;;;;;;;;;;;;0.25;71.88;97650.44;5170317;23;5811;-76
2021/12/22 09:41:36;;;;;;;;;;;;;;;0.29;71.16;97646.66;5197620;22;5609;-75
2021/12/22 09:43:39;;;;;;;;;;;;;;;0.26;71.72;97646.88;5173129;23;5637;-74
2021/12/22 09:45:47;;;;;;;;;;;;;;;0.24;71.40;97657.41;5172042;23;5717;-77
2021/12/22 09:50:12;;;;;;;;;;;;;;;0.63;70.39;97662.47;5173406;22;5824;-77
2021/12/22 09:52:27;;;;;;;;;;;;;;;0.60;69.99;97667.91;5177667;23;5627;-78
2021/12/22 09:54:30;;;;;;;;;;;;;;;0.54;70.05;97662.19;5182453;23;5772;-77
2021/12/22 09:56:33;;;;;;;;;;;;;;;0.57;70.25;97664.56;5181660;22;5701;-77
2021/12/22 09:58:39;;;;;;;;;;;;;;;0.53;70.16;97657.91;5185460;22;5129;-75
2021/12/22 10:00:42;;;;;;;;;;;;;;;0.47;70.23;97652.34;5186047;23;7688;-76
2021/12/22 10:02:44;;;;;;;;;;;;;;;0.49;70.23;97655.66;5187853;22;5716;-77
2021/12/22 10:04:46;;;;;;;;;;;;;;;0.49;70.30;97648.69;5184387;22;5693;-74
2021/12/22 10:06:48;;;;;;;;;;;;;;;0.51;70.30;97646.78;5176421;22;5693;-76
2021/12/22 10:09:03;;;;;;;;;;;;;;;0.44;70.41;97650.75;5174675;23;5633;-75
2021/12/22 10:11:09;;;;;;;;;;;;;;;0.49;70.55;97648.69;5177036;22;5715;-75
2021/12/22 10:13:25;;;;;;;;;;;;;;;0.51;70.17;97645.97;5175677;22;5925;-77
2021/12/22 10:15:32;;;;;;;;;;;;;;;0.56;70.15;97644.69;5174280;22;5725;-75
2021/12/22 10:17:42;;;;;;;;;;;;;;;0.61;70.32;97633.13;5172113;23;5735;-74
2021/12/22 10:19:47;;;;;;;;;;;;;;;0.66;70.27;97633.59;5173999;23;5629;-77
2021/12/22 10:21:52;;;;;;;;;;;;;;;0.49;70.36;97630.47;5175047;22;5080;-77
2021/12/22 10:23:54;;;;;;;;;;;;;;;0.54;70.73;97630.94;5172337;23;6949;-77
2021/12/22 10:26:00;;;;;;;;;;;;;;;0.67;70.66;97630.06;5173112;23;6261;-76
2021/12/22 10:28:09;;;;;;;;;;;;;;;0.80;70.22;97633.47;5171639;23;5737;-76
2021/12/22 10:30:21;;;;;;;;;;;;;;;0.60;70.26;97623.66;5173950;23;6281;-76
2021/12/22 10:32:22;;;;;;;;;;;;;;;0.45;70.93;97630.78;5176365;22;5724;-78
2021/12/22 10:34:24;;;;;;;;;;;;;;;0.50;70.75;97624.31;5176180;23;5708;-76
2021/12/22 10:36:25;;;;;;;;;;;;;;;0.36;70.98;97621.06;5149579;23;5070;-77
2021/12/22 10:38:30;;;;;;;;;;;;;;;0.32;71.16;97625.63;5175161;23;7746;-78
2021/12/22 10:40:37;;;;;;;;;;;;;;;0.73;70.61;97624.44;5176010;23;6066;-77
2021/12/22 10:42:41;;;;;;;;;;;;;;;0.89;69.94;97624.94;5176416;22;5728;-77
2021/12/22 10:44:47;;;;;;;;;;;;;;;0.88;69.94;97612.88;5176468;22;5697;-77
2021/12/22 10:46:52;;;;;;;;;;;;;;;0.82;69.80;97615.94;5176286;22;5729;-77
2021/12/22 10:49:19;;;;;;;;;;;;;;;0.67;70.37;97619.66;5176448;23;5697;-77
2021/12/22 10:51:40;;;;;;;;;;;;;;;0.78;70.48;97607.53;5174997;23;5660;-76
2021/12/22 10:53:47;;;;;;;;;;;;;;;0.79;70.14;97604.00;5176470;22;5700;-77
2021/12/22 10:55:54;;;;;;;;;;;;;;;0.84;70.00;97601.06;5174660;23;5652;-77
2021/12/22 10:57:57;;;;;;;;;;;;;;;0.87;69.93;97596.44;5176121;23;5709;-77
2021/12/22 10:59:58;;;;;;;;;;;;;;;0.93;69.98;97594.34;5175905;22;5752;-77
2021/12/22 11:02:07;;;;;;;;;;;;;;;0.99;69.91;97592.09;5176166;23;5767;-77
2021/12/22 11:04:18;;;;;;;;;;;;;;;0.99;70.01;97594.69;5149929;23;5695;-77
2021/12/22 11:06:24;;;;;;;;;;;;;;;0.97;70.00;97593.97;5176130;22;5709;-76
2021/12/22 11:08:26;;;;;;;;;;;;;;;1.02;70.11;97591.88;5176100;22;5771;-76
2021/12/22 11:10:30;;;;;;;;;;;;;;;1.02;69.44;97594.50;5176026;23;5801;-76
2021/12/22 11:12:36;;;;;;;;;;;;;;;1.07;69.53;97592.34;5175906;22;5832;-77
2021/12/22 11:14:40;;;;;;;;;;;;;;;1.20;69.82;97587.06;5176390;22;5067;-76
2021/12/22 11:17:01;;;;;;;;;;;;;;;1.25;69.55;97584.13;5176106;22;7713;-77
2021/12/22 11:19:10;;;;;;;;;;;;;;;1.20;69.13;97575.81;5175879;22;5696;-77
2021/12/22 11:21:16;;;;;;;;;;;;;;;1.06;69.00;97572.47;5175559;22;5697;-77
2021/12/22 11:23:18;;;;;;;;;;;;;;;1.16;69.46;97570.84;5176499;22;5712;-77
2021/12/22 11:25:21;;;;;;;;;;;;;;;1.21;69.12;97572.25;5175675;22;5704;-77
2021/12/22 11:27:26;;;;;;;;;;;;;;;1.20;69.25;97570.59;5175932;22;5713;-77
2021/12/22 11:29:28;;;;;;;;;;;;;;;1.36;69.21;97561.53;5174294;23;5628;-77
2021/12/22 11:31:30;;;;;;;;;;;;;;;1.42;69.24;97560.22;5175797;22;5748;-77
2021/12/22 11:33:33;;;;;;;;;;;;;;;1.51;69.12;97554.28;5176373;22;5709;-77
2021/12/22 11:35:39;;;;;;;;;;;;;;;1.41;68.89;97564.59;5175770;22;5701;-76
2021/12/22 11:37:42;;;;;;;;;;;;;;;1.44;69.28;97550.50;5174394;22;5729;-76
2021/12/22 11:39:44;;;;;;;;;;;;;;;1.40;69.00;97562.09;5175886;22;5780;-76
2021/12/22 11:41:56;;;;;;;;;;;;;;;1.29;69.68;97554.28;5175999;22;5721;-76
2021/12/22 11:44:01;;;;;;;;;;;;;;;1.27;69.22;97553.56;5175338;22;5701;-76
2021/12/22 11:46:03;;;;;;;;;;;;;;;1.33;69.58;97551.31;5175933;22;5004;-76
2021/12/22 11:48:05;;;;;;;;;;;;;;;1.08;69.89;97551.53;5176293;22;5716;-76
2021/12/22 11:50:15;;;;;;;;;;;;;;;0.94;70.42;97542.16;5174243;23;5644;-77
2021/12/22 11:52:39;;;;;;;;;;;;;;;1.12;70.16;97542.53;5148717;23;5625;-77
2021/12/22 11:55:12;;;;;;;;;;;;;;;1.12;69.90;97538.13;5174203;23;5636;-77
2021/12/22 11:57:18;;;;;;;;;;;;;;;1.30;70.01;97545.53;5176163;22;5700;-77
2021/12/22 11:59:36;;;;;;;;;;;;;;;1.27;68.90;97549.19;5175803;22;5063;-77
2021/12/22 12:01:39;;;;;;;;;;;;;;;1.47;69.18;97542.44;5174009;23;5683;-76
2021/12/22 12:03:44;;;;;;;;;;;;;;;1.30;69.15;97546.34;5175592;22;5708;-77
2021/12/22 12:06:18;;;;;;;;;;;;;;;1.48;69.45;97533.69;5175863;22;5700;-76
2021/12/22 12:08:20;;;;;;;;;;;;;;;1.57;68.72;97525.13;5102243;23;5685;-77
2021/12/22 12:10:32;;;;;;;;;;;;;;;1.44;68.83;97519.22;5176039;23;5701;-77
2021/12/22 12:12:52;;;;;;;;;;;;;;;1.54;69.33;97522.78;5175083;22;5693;-76
2021/12/22 12:15:06;;;;;;;;;;;;;;;1.65;69.02;97519.34;5175116;22;5749;-76
2021/12/22 12:22:26;;;;;;;;;;;;;;;1.53;68.98;97526.34;5175489;23;5801;-76
2021/12/22 12:24:30;;;;;;;;;;;;;;;1.52;68.60;97524.69;5173992;23;5753;-77
2021/12/22 12:26:37;;;;;;;;;;;;;;;1.46;68.95;97525.13;5172784;23;5960;-76
2021/12/22 12:28:47;;;;;;;;;;;;;;;1.54;69.17;97519.34;5173428;23;6878;-77
2021/12/22 12:30:57;;;;;;;;;;;;;;;1.63;69.17;97514.25;5173848;23;5707;-78
2021/12/22 12:33:04;;;;;;;;;;;;;;;1.65;68.85;97509.75;5174990;22;5803;-77
2021/12/22 12:35:22;;;;;;;;;;;;;;;1.62;68.94;97509.16;5175223;22;5709;-77
2021/12/22 12:38:01;;;;;;;;;;;;;;;1.32;69.51;97501.94;5175592;22;6333;-77
2021/12/22 12:40:03;;;;;;;;;;;;;;;1.47;69.16;97505.94;5175183;22;5697;-76
2021/12/22 12:42:04;;;;;;;;;;;;;;;1.48;68.98;97502.44;5173868;23;5748;-76
2021/12/22 12:44:11;;;;;;;;;;;;;;;1.55;69.03;97502.75;5175460;22;5737;-77
2021/12/22 12:48:26;;;;;;;;;;;;;;;1.53;68.77;97510.69;5173358;23;5807;-77
2021/12/22 12:50:30;;;;;;;;;;;;;;;1.54;69.31;97509.75;5174492;22;5700;-75
2021/12/22 12:52:33;;;;;;;;;;;;;;;1.62;69.00;97510.00;5173221;22;5723;-79
2021/12/22 12:54:40;;;;;;;;;;;;;;;1.53;69.33;97505.50;5174245;22;5052;-77
2021/12/22 12:56:45;;;;;;;;;;;;;;;1.64;68.90;97500.25;5173827;23;5696;-74
2021/12/22 12:58:57;;;;;;;;;;;;;;;1.71;68.83;97490.19;5173392;23;5649;-81
2021/12/22 13:00:58;;;;;;;;;;;;;;;1.71;68.84;97493.63;5172419;22;5752;-80
2021/12/22 13:03:03;;;;;;;;;;;;;;;1.75;68.80;97500.25;5171438;23;5629;-79
2021/12/22 13:05:11;;;;;;;;;;;;;;;1.71;68.67;97485.81;5170976;23;5721;-81
2021/12/22 13:07:18;;;;;;;;;;;;;;;1.66;68.90;97492.31;5171967;23;5636;-79
2021/12/22 13:09:27;;;;;;;;;;;;;;;1.60;69.37;97492.81;5173940;23;5684;-79
2021/12/22 13:11:29;;;;;;;;;;;;;;;1.58;69.62;97495.53;5173419;23;5644;-81
2021/12/22 13:15:45;;;;;;;;;;;;;;;1.65;69.21;97501.09;5175046;22;5696;-80
2021/12/22 13:15:59;;;;;;;;;;;;;;;1.32;69.31;97497.56;5174835;22;5835;-76
2021/12/22 13:18:12;;;;;;;;;;;;;;;1.45;69.24;97505.25;5170919;23;5749;-81
2021/12/22 13:20:19;;;;;;;;;;;;;;;1.06;70.13;97503.94;5173831;22;5716;-75
2021/12/22 13:22:37;;;;;;;;;;;;;;;1.39;69.80;97513.56;5168291;22;5083;-85
2021/12/22 13:24:38;;;;;;;;;;;;;;;1.50;69.37;97516.16;5174087;22;5709;-77
2021/12/22 13:26:47;;;;;;;;;;;;;;;1.47;69.18;97505.94;5175073;23;5872;-79
2021/12/22 13:28:51;;;;;;;;;;;;;;;1.43;69.47;97499.34;5174665;22;5911;-76
2021/12/22 13:30:56;;;;;;;;;;;;;;;1.48;69.22;97501.59;5174804;22;5801;-77
2021/12/22 13:33:10;;;;;;;;;;;;;;;1.45;69.65;97507.84;5175306;22;6020;-83
2021/12/22 13:35:28;;;;;;;;;;;;;;;1.62;69.14;97499.56;5152445;23;6276;-77
2021/12/22 13:37:30;;;;;;;;;;;;;;;1.50;69.56;97508.34;5176254;22;5884;-79
2021/12/22 13:39:41;;;;;;;;;;;;;;;1.66;69.22;97506.19;5175554;22;5712;-75
2021/12/22 13:41:43;;;;;;;;;;;;;;;1.36;69.73;97505.97;5173765;23;5617;-77
2021/12/22 13:43:46;;;;;;;;;;;;;;;1.34;69.93;97497.44;5173223;23;5725;-77
2021/12/22 13:45:49;;;;;;;;;;;;;;;1.39;69.55;97493.53;5175867;22;5708;-78
2021/12/22 13:47:51;;;;;;;;;;;;;;;1.53;69.35;97495.06;5174744;22;5899;-78
2021/12/22 13:49:52;;;;;;;;;;;;;;;1.65;69.43;97491.50;5175331;22;5693;-78
2021/12/22 13:51:55;;;;;;;;;;;;;;;1.71;69.37;97488.41;5175489;23;5935;-78
2021/12/22 13:53:57;;;;;;;;;;;;;;;1.71;69.27;97491.03;5174636;22;5708;-80
2021/12/22 13:56:00;;;;;;;;;;;;;;;1.57;70.00;97496.47;5174305;23;5729;-77
2021/12/22 13:58:37;;;;;;;;;;;;;;;1.51;70.02;97486.53;5173620;23;5719;-76
2021/12/22 14:00:38;;;;;;;;;;;;;;;1.53;69.99;97489.84;5176292;22;5700;-73
2021/12/22 14:02:40;;;;;;;;;;;;;;;1.41;70.44;97494.25;5171993;23;5668;-78
2021/12/22 14:04:42;;;;;;;;;;;;;;;1.50;70.08;97494.47;5174615;23;5701;-81
2021/12/22 14:06:49;;;;;;;;;;;;;;;1.24;70.68;97491.28;5174705;23;5686;-81
2021/12/22 14:09:11;;;;;;;;;;;;;;;1.28;70.65;97495.31;5175647;22;5709;-78
2021/12/22 14:11:37;;;;;;;;;;;;;;;1.44;70.28;97490.56;5177285;23;6333;-86
2021/12/22 14:13:38;;;;;;;;;;;;;;;1.54;69.97;97506.31;5173864;23;5646;-74
2021/12/22 14:15:40;;;;;;;;;;;;;;;1.57;69.75;97496.47;5173551;22;5861;-75
2021/12/22 14:17:46;;;;;;;;;;;;;;;1.73;69.58;97493.50;5123314;23;5658;-75
2021/12/22 14:19:51;;;;;;;;;;;;;;;1.64;69.77;97487.25;5174252;22;5822;-75
2021/12/22 14:22:02;;;;;;;;;;;;;;;1.76;69.77;97495.88;5173948;23;6285;-75
2021/12/22 14:24:04;;;;;;;;;;;;;;;1.88;69.15;97494.91;5175222;22;5717;-75
2021/12/22 14:26:07;;;;;;;;;;;;;;;1.48;69.69;97496.38;5173876;23;5624;-75
2021/12/22 14:28:24;;;;;;;;;;;;;;;1.60;69.65;97491.03;5175356;22;6435;-75
2021/12/22 14:30:33;;;;;;;;;;;;;;;1.38;69.66;97491.06;5174717;22;5791;-74
2021/12/22 14:32:39;;;;;;;;;;;;;;;1.36;69.71;97478.16;5174487;22;5704;-73
2021/12/22 14:34:57;;;;;;;;;;;;;;;1.21;70.56;97483.69;5175746;23;5760;-73
2021/12/22 14:37:01;;;;;;;;;;;;;;;1.13;70.14;97479.94;5173332;23;5644;-73
2021/12/22 14:39:03;;;;;;;;;;;;;;;1.35;69.86;97486.06;5175027;22;5812;-74
2021/12/22 14:41:07;;;;;;;;;;;;;;;0.82;71.41;97486.63;5147530;23;5754;-73
2021/12/22 14:43:12;;;;;;;;;;;;;;;0.73;71.94;97496.91;5173569;22;5708;-74
2021/12/22 14:45:35;;;;;;;;;;;;;;;0.70;72.30;97489.34;5175908;23;5697;-72
2021/12/22 14:47:37;;;;;;;;;;;;;;;0.66;72.73;97490.47;5173392;23;6253;-75
2021/12/22 14:49:39;;;;;;;;;;;;;;;0.76;72.51;97491.47;5172606;23;5696;-74
2021/12/22 14:51:42;;;;;;;;;;;;;;;1.08;71.30;97487.25;5181350;23;5760;-76
2021/12/22 14:53:56;;;;;;;;;;;;;;;1.34;70.82;97494.81;5182750;22;5717;-76
2021/12/22 14:55:59;;;;;;;;;;;;;;;1.21;70.97;97499.34;5184089;22;5767;-75
2021/12/22 14:58:00;;;;;;;;;;;;;;;1.34;70.75;97489.63;5185956;22;5847;-75
2021/12/22 15:00:03;;;;;;;;;;;;;;;1.38;70.48;97504.91;5184749;23;5731;-74
2021/12/22 15:02:04;;;;;;;;;;;;;;;1.38;70.30;97504.91;5181910;22;5729;-76
2021/12/22 15:04:07;;;;;;;;;;;;;;;1.52;70.23;97498.63;5171214;23;5062;-77
2021/12/22 15:06:15;;;;;;;;;;;;;;;1.28;70.36;97500.53;5174337;22;7725;-79
2021/12/22 15:08:17;;;;;;;;;;;;;;;1.39;69.80;97508.34;5170879;23;5750;-78
2021/12/22 15:10:23;;;;;;;;;;;;;;;0.87;71.58;97500.13;5168149;23;5766;-75
2021/12/22 15:12:24;;;;;;;;;;;;;;;0.89;71.44;97507.81;5168899;23;5748;-79
2021/12/22 15:14:26;;;;;;;;;;;;;;;0.84;71.45;97502.13;5166818;23;5762;-78
2021/12/22 15:16:29;;;;;;;;;;;;;;;1.05;70.96;97497.91;5167835;22;5795;-79
2021/12/22 15:18:42;;;;;;;;;;;;;;;1.30;70.46;97503.84;5168767;23;5724;-78
2021/12/22 15:20:56;;;;;;;;;;;;;;;1.35;70.02;97507.72;5170359;23;5804;-79
2021/12/22 15:23:07;;;;;;;;;;;;;;;1.46;70.12;97514.72;5168910;23;5718;-78
2021/12/22 15:25:13;;;;;;;;;;;;;;;1.51;69.75;97512.59;5145149;23;5758;-79
2021/12/22 15:27:27;;;;;;;;;;;;;;;1.45;69.74;97507.84;5169698;23;5836;-74
2021/12/22 15:29:30;;;;;;;;;;;;;;;1.44;69.82;97507.03;5171672;23;5803;-74
2021/12/22 15:31:32;;;;;;;;;;;;;;;1.33;69.66;97511.41;5169646;23;5735;-74
2021/12/22 15:33:38;;;;;;;;;;;;;;;1.47;69.65;97508.56;5171050;22;5815;-74
2021/12/22 15:35:42;;;;;;;;;;;;;;;1.49;69.60;97505.88;5168869;23;5740;-73
2021/12/22 15:37:50;;;;;;;;;;;;;;;1.36;69.33;97506.81;5169136;23;6540;-75
2021/12/22 15:39:52;;;;;;;;;;;;;;;1.42;69.66;97505.50;5168508;23;5740;-74
2021/12/22 15:41:54;;;;;;;;;;;;;;;1.36;69.34;97505.97;5171058;22;5935;-75
2021/12/22 15:43:58;;;;;;;;;;;;;;;1.44;69.67;97506.19;5170986;23;5807;-75
2021/12/22 15:45:59;;;;;;;;;;;;;;;1.49;69.60;97508.47;5145050;23;5684;-74
2021/12/22 15:48:03;;;;;;;;;;;;;;;0.95;70.73;97506.53;5170548;22;5796;-73
2021/12/22 15:50:12;;;;;;;;;;;;;;;1.07;70.72;97509.03;5169382;23;5746;-75
2021/12/22 15:52:17;;;;;;;;;;;;;;;0.88;71.10;97506.16;5169798;23;5058;-74
2021/12/22 15:54:23;;;;;;;;;;;;;;;1.08;70.67;97518.50;5169604;23;5743;-73
2021/12/22 15:56:40;;;;;;;;;;;;;;;1.23;70.22;97518.28;5169593;23;5743;-74
2021/12/22 15:58:46;;;;;;;;;;;;;;;1.30;69.91;97515.09;5169665;23;6508;-73
2021/12/22 16:00:48;;;;;;;;;;;;;;;1.37;69.54;97518.06;5171083;22;5811;-73
2021/12/22 16:02:51;;;;;;;;;;;;;;;1.41;69.40;97516.88;5172115;22;5807;-75
2021/12/22 16:04:53;;;;;;;;;;;;;;;1.41;69.69;97512.47;5169548;23;5738;-75
2021/12/22 16:06:55;;;;;;;;;;;;;;;1.41;69.67;97514.25;5195527;22;5836;-74
2021/12/22 16:08:56;;;;;;;;;;;;;;;1.43;69.59;97522.78;5171086;22;5803;-74
2021/12/22 16:10:58;;;;;;;;;;;;;;;1.42;69.73;97518.53;5169683;23;5731;-75
2021/12/22 16:13:00;;;;;;;;;;;;;;;1.36;69.61;97513.78;5168957;23;5760;-75
2021/12/22 16:15:05;;;;;;;;;;;;;;;1.42;69.63;97508.94;5171512;22;5811;-75
2021/12/22 16:17:07;;;;;;;;;;;;;;;1.41;69.70;97514.25;5169692;23;5725;-75
2021/12/22 16:19:08;;;;;;;;;;;;;;;1.42;69.48;97526.34;5171378;22;5900;-75
2021/12/22 16:21:10;;;;;;;;;;;;;;;1.38;69.50;97519.72;5170744;23;5802;-75
2021/12/22 16:23:18;;;;;;;;;;;;;;;1.34;69.75;97515.66;5171314;22;5788;-74
2021/12/22 16:25:38;;;;;;;;;;;;;;;1.35;69.68;97520.75;5169734;23;5727;-74
2021/12/22 16:27:41;;;;;;;;;;;;;;;1.41;69.61;97522.06;5169400;22;6345;-75
2021/12/22 16:29:44;;;;;;;;;;;;;;;1.43;69.48;97522.78;5167004;23;5748;-75
2021/12/22 16:31:45;;;;;;;;;;;;;;;1.41;69.54;97524.69;5170227;22;5819;-75
2021/12/22 16:33:47;;;;;;;;;;;;;;;1.37;69.58;97515.47;5169159;23;5759;-75
2021/12/22 16:35:49;;;;;;;;;;;;;;;1.33;69.79;97522.66;5169939;23;5811;-74
2021/12/22 16:37:51;;;;;;;;;;;;;;;1.38;69.71;97514.50;5169610;23;5775;-73
2021/12/22 16:39:52;;;;;;;;;;;;;;;1.32;70.01;97517.56;5171225;22;5819;-75
2021/12/22 16:41:57;;;;;;;;;;;;;;;1.39;69.96;97524.81;5169445;23;5732;-73
2021/12/22 16:43:59;;;;;;;;;;;;;;;1.49;69.93;97519.72;5171614;22;5799;-74
2021/12/22 16:46:01;;;;;;;;;;;;;;;1.51;69.81;97517.81;5168902;23;5743;-75
2021/12/22 16:48:03;;;;;;;;;;;;;;;1.20;70.09;97513.31;5171026;22;5068;-74
2021/12/22 16:50:06;;;;;;;;;;;;;;;1.33;70.04;97514.00;5168298;23;5104;-75
2021/12/22 16:52:07;;;;;;;;;;;;;;;1.49;69.56;97517.09;5169955;22;7814;-76
2021/12/22 16:54:09;;;;;;;;;;;;;;;1.51;69.30;97509.16;5170047;22;6480;-75
2021/12/22 16:56:11;;;;;;;;;;;;;;;1.51;69.33;97515.22;5170685;22;5839;-74
2021/12/22 16:58:12;;;;;;;;;;;;;;;1.53;69.46;97515.91;5169907;22;5932;-74
2021/12/22 17:00:15;;;;;;;;;;;;;;;1.48;69.38;97510.25;5140604;23;5758;-71
2021/12/22 17:02:17;;;;;;;;;;;;;;;1.52;69.62;97514.25;5169031;22;5756;-70
2021/12/22 17:04:19;;;;;;;;;;;;;;;1.54;69.49;97501.09;5170844;22;5804;-74
2021/12/22 17:06:21;;;;;;;;;;;;;;;1.48;69.52;97512.03;5170669;22;5839;-74
2021/12/22 17:08:23;;;;;;;;;;;;;;;1.40;69.70;97504.78;5170082;22;5920;-74
2021/12/22 17:10:25;;;;;;;;;;;;;;;1.44;69.58;97501.81;5168947;23;5850;-76
2021/12/22 17:12:27;;;;;;;;;;;;;;;1.44;69.46;97512.25;5169936;22;5157;-70
2021/12/22 17:14:32;;;;;;;;;;;;;;;1.35;69.57;97509.50;5168294;22;5839;-72
2021/12/22 17:16:34;;;;;;;;;;;;;;;1.23;69.61;97518.28;5168663;22;5811;-74
2021/12/22 17:18:37;;;;;;;;;;;;;;;1.05;70.17;97523.13;5170708;22;5907;-72
2021/12/22 17:20:40;;;;;;;;;;;;;;;1.02;70.28;97515.53;5193546;22;5720;-69
2021/12/22 17:22:42;;;;;;;;;;;;;;;0.96;70.60;97516.00;5170529;22;5831;-72
2021/12/22 17:24:43;;;;;;;;;;;;;;;0.94;70.48;97512.69;5168386;23;5776;-71
2021/12/22 17:26:45;;;;;;;;;;;;;;;0.95;70.62;97517.78;5143982;23;5750;-70
2021/12/22 17:28:47;;;;;;;;;;;;;;;0.96;70.39;97516.81;5170853;22;5815;-71
2021/12/22 17:30:49;;;;;;;;;;;;;;;0.95;70.73;97512.56;5167655;23;5735;-71
2021/12/22 17:32:51;;;;;;;;;;;;;;;0.95;70.55;97522.97;5170158;22;5810;-71
2021/12/22 17:34:53;;;;;;;;;;;;;;;0.90;70.71;97513.84;5168813;23;5828;-70
2021/12/22 17:36:56;;;;;;;;;;;;;;;0.85;70.91;97520.22;5170719;23;5795;-69
2021/12/22 17:38:58;;;;;;;;;;;;;;;0.92;70.95;97518.00;5170426;22;5798;-69
2021/12/22 17:41:01;;;;;;;;;;;;;;;0.98;70.53;97509.72;5168551;23;5732;-71
2021/12/22 17:43:03;;;;;;;;;;;;;;;0.96;70.66;97521.19;5170212;23;5799;-69
2021/12/22 17:45:06;;;;;;;;;;;;;;;0.90;70.75;97517.28;5169583;23;5808;-72
2021/12/22 17:47:08;;;;;;;;;;;;;;;0.90;70.91;97519.88;5168780;22;5863;-69
2021/12/22 17:49:10;;;;;;;;;;;;;;;0.72;71.38;97516.06;5166403;23;5739;-69
2021/12/22 17:51:12;;;;;;;;;;;;;;;0.80;71.06;97518.94;5168218;23;5748;-69
2021/12/22 17:53:14;;;;;;;;;;;;;;;0.94;71.37;97517.91;5170943;22;5807;-70
2021/12/22 17:55:16;;;;;;;;;;;;;;;0.92;70.99;97509.38;5169774;23;5347;-70
2021/12/22 17:57:18;;;;;;;;;;;;;;;0.77;71.44;97508.72;5168898;22;5791;-71
2021/12/22 17:59:21;;;;;;;;;;;;;;;0.86;71.39;97510.66;5194333;22;5802;-70
2021/12/22 18:01:25;;;;;;;;;;;;;;;0.93;71.01;97517.06;5170982;23;5787;-70
2021/12/22 18:03:31;;;;;;;;;;;;;;;0.90;71.03;97512.06;5170672;23;5796;-70